sensor_id;sensor_type;location;lat;lon;timestamp;P1;durP1;ratioP1;P2;durP2;ratioP2
6259;SDS011;3163;51.516;4.000;2022-08-11T00:02:13;1.33;;;1.23;;
6259;SDS011;3163;51.516;4.000;2022-08-11T00:04:39;1.50;;;1.13;;
6259;SDS011;3163;51.516;4.000;2022-08-11T00:07:06;1.45;;;1.40;;
6259;SDS011;3163;51.516;4.000;2022-08-11T00:09:34;1.00;;;1.00;;
6259;SDS011;3163;51.516;4.000;2022-08-11T00:12:00;1.20;;;1.17;;
6259;SDS011;3163;51.516;4.000;2022-08-11T00:14:27;1.40;;;1.30;;
6259;SDS011;3163;51.516;4.000;2022-08-11T00:16:57;1.73;;;1.33;;
6259;SDS011;3163;51.516;4.000;2022-08-11T00:19:28;1.80;;;1.30;;
6259;SDS011;3163;51.516;4.000;2022-08-11T00:21:55;1.10;;;1.10;;
6259;SDS011;3163;51.516;4.000;2022-08-11T00:24:21;1.40;;;1.30;;
6259;SDS011;3163;51.516;4.000;2022-08-11T00:26:49;2.92;;;1.42;;
6259;SDS011;3163;51.516;4.000;2022-08-11T00:29:16;2.03;;;1.50;;
6259;SDS011;3163;51.516;4.000;2022-08-11T00:31:43;1.42;;;1.30;;
6259;SDS011;3163;51.516;4.000;2022-08-11T00:34:11;1.60;;;1.50;;
6259;SDS011;3163;51.516;4.000;2022-08-11T00:36:41;1.42;;;1.33;;
6259;SDS011;3163;51.516;4.000;2022-08-11T00:39:08;2.60;;;1.20;;
6259;SDS011;3163;51.516;4.000;2022-08-11T00:41:39;1.42;;;1.33;;
6259;SDS011;3163;51.516;4.000;2022-08-11T00:44:16;1.33;;;1.23;;
6259;SDS011;3163;51.516;4.000;2022-08-11T00:46:50;1.52;;;1.42;;
6259;SDS011;3163;51.516;4.000;2022-08-11T00:49:25;1.48;;;1.20;;
6259;SDS011;3163;51.516;4.000;2022-08-11T00:54:26;4.97;;;1.15;;
6259;SDS011;3163;51.516;4.000;2022-08-11T01:02:07;2.63;;;1.27;;
6259;SDS011;3163;51.516;4.000;2022-08-11T01:33:50;1.40;;;1.30;;
6259;SDS011;3163;51.516;4.000;2022-08-11T01:36:33;1.60;;;1.30;;
6259;SDS011;3163;51.516;4.000;2022-08-11T01:39:12;2.22;;;1.38;;
6259;SDS011;3163;51.516;4.000;2022-08-11T01:47:30;1.95;;;1.35;;
6259;SDS011;3163;51.516;4.000;2022-08-11T01:58:22;1.55;;;1.20;;
6259;SDS011;3163;51.516;4.000;2022-08-11T02:00:57;1.10;;;1.10;;
6259;SDS011;3163;51.516;4.000;2022-08-11T02:06:21;1.48;;;1.38;;
6259;SDS011;3163;51.516;4.000;2022-08-11T02:09:15;3.42;;;1.65;;
6259;SDS011;3163;51.516;4.000;2022-08-11T02:11:44;2.25;;;1.50;;
6259;SDS011;3163;51.516;4.000;2022-08-11T02:19:10;2.80;;;1.60;;
6259;SDS011;3163;51.516;4.000;2022-08-11T02:22:02;1.70;;;1.60;;
6259;SDS011;3163;51.516;4.000;2022-08-11T02:25:10;2.50;;;1.73;;
6259;SDS011;3163;51.516;4.000;2022-08-11T02:27:44;1.52;;;1.42;;
6259;SDS011;3163;51.516;4.000;2022-08-11T02:30:14;2.13;;;2.03;;
6259;SDS011;3163;51.516;4.000;2022-08-11T02:32:50;2.37;;;1.57;;
6259;SDS011;3163;51.516;4.000;2022-08-11T02:38:16;1.77;;;1.60;;
6259;SDS011;3163;51.516;4.000;2022-08-11T02:40:52;1.42;;;1.33;;
6259;SDS011;3163;51.516;4.000;2022-08-11T02:45:53;4.05;;;1.70;;
6259;SDS011;3163;51.516;4.000;2022-08-11T02:48:28;1.80;;;1.70;;
6259;SDS011;3163;51.516;4.000;2022-08-11T02:56:59;1.70;;;1.60;;
6259;SDS011;3163;51.516;4.000;2022-08-11T02:59:32;3.13;;;1.48;;
6259;SDS011;3163;51.516;4.000;2022-08-11T03:04:44;2.08;;;1.48;;
6259;SDS011;3163;51.516;4.000;2022-08-11T03:07:23;1.90;;;1.70;;
6259;SDS011;3163;51.516;4.000;2022-08-11T03:10:02;1.80;;;1.70;;
6259;SDS011;3163;51.516;4.000;2022-08-11T03:12:32;3.50;;;2.00;;
6259;SDS011;3163;51.516;4.000;2022-08-11T03:20:52;1.30;;;1.20;;
6259;SDS011;3163;51.516;4.000;2022-08-11T03:25:51;2.38;;;1.40;;
6259;SDS011;3163;51.516;4.000;2022-08-11T03:33:26;1.25;;;1.25;;
6259;SDS011;3163;51.516;4.000;2022-08-11T03:36:19;1.95;;;1.67;;
6259;SDS011;3163;51.516;4.000;2022-08-11T03:38:55;1.60;;;1.58;;
6259;SDS011;3163;51.516;4.000;2022-08-11T03:52:20;1.90;;;1.52;;
6259;SDS011;3163;51.516;4.000;2022-08-11T03:57:34;3.55;;;1.55;;
6259;SDS011;3163;51.516;4.000;2022-08-11T04:08:10;2.33;;;1.70;;
6259;SDS011;3163;51.516;4.000;2022-08-11T04:21:35;3.88;;;2.03;;
6259;SDS011;3163;51.516;4.000;2022-08-11T04:24:23;2.60;;;1.50;;
6259;SDS011;3163;51.516;4.000;2022-08-11T04:35:11;1.75;;;1.65;;
6259;SDS011;3163;51.516;4.000;2022-08-11T04:37:42;2.65;;;2.45;;
6259;SDS011;3163;51.516;4.000;2022-08-11T04:51:24;2.90;;;1.70;;
6259;SDS011;3163;51.516;4.000;2022-08-11T04:57:01;1.98;;;1.80;;
6259;SDS011;3163;51.516;4.000;2022-08-11T05:00:02;3.80;;;2.13;;
6259;SDS011;3163;51.516;4.000;2022-08-11T05:13:32;2.92;;;2.15;;
6259;SDS011;3163;51.516;4.000;2022-08-11T05:16:18;3.80;;;2.45;;
6259;SDS011;3163;51.516;4.000;2022-08-11T05:19:05;3.13;;;2.83;;
6259;SDS011;3163;51.516;4.000;2022-08-11T05:21:53;3.22;;;2.40;;
6259;SDS011;3163;51.516;4.000;2022-08-11T05:24:42;3.42;;;1.50;;
6259;SDS011;3163;51.516;4.000;2022-08-11T05:27:34;4.63;;;2.72;;
6259;SDS011;3163;51.516;4.000;2022-08-11T05:30:19;2.88;;;2.30;;
6259;SDS011;3163;51.516;4.000;2022-08-11T05:33:14;1.80;;;1.70;;
6259;SDS011;3163;51.516;4.000;2022-08-11T05:38:33;4.43;;;2.40;;
6259;SDS011;3163;51.516;4.000;2022-08-11T05:41:19;2.40;;;2.00;;
6259;SDS011;3163;51.516;4.000;2022-08-11T05:44:05;3.50;;;2.55;;
6259;SDS011;3163;51.516;4.000;2022-08-11T05:46:50;5.00;;;2.92;;
6259;SDS011;3163;51.516;4.000;2022-08-11T05:49:34;3.42;;;2.03;;
6259;SDS011;3163;51.516;4.000;2022-08-11T05:52:21;2.47;;;2.28;;
6259;SDS011;3163;51.516;4.000;2022-08-11T05:55:06;3.25;;;2.13;;
6259;SDS011;3163;51.516;4.000;2022-08-11T05:57:55;2.60;;;2.00;;
6259;SDS011;3163;51.516;4.000;2022-08-11T06:00:22;2.03;;;1.92;;
6259;SDS011;3163;51.516;4.000;2022-08-11T06:02:52;2.17;;;2.08;;
6259;SDS011;3163;51.516;4.000;2022-08-11T06:05:21;3.58;;;2.15;;
6259;SDS011;3163;51.516;4.000;2022-08-11T06:07:48;3.67;;;2.33;;
6259;SDS011;3163;51.516;4.000;2022-08-11T06:10:23;2.85;;;1.95;;
6259;SDS011;3163;51.516;4.000;2022-08-11T06:12:51;5.20;;;1.90;;
6259;SDS011;3163;51.516;4.000;2022-08-11T06:15:19;2.70;;;2.10;;
6259;SDS011;3163;51.516;4.000;2022-08-11T06:17:45;4.10;;;1.90;;
6259;SDS011;3163;51.516;4.000;2022-08-11T06:20:15;1.95;;;1.85;;
6259;SDS011;3163;51.516;4.000;2022-08-11T06:22:43;4.28;;;2.90;;
6259;SDS011;3163;51.516;4.000;2022-08-11T06:25:10;3.80;;;1.67;;
6259;SDS011;3163;51.516;4.000;2022-08-11T06:27:37;3.15;;;2.30;;
6259;SDS011;3163;51.516;4.000;2022-08-11T06:30:04;2.17;;;2.00;;
6259;SDS011;3163;51.516;4.000;2022-08-11T06:32:37;6.97;;;3.17;;
6259;SDS011;3163;51.516;4.000;2022-08-11T06:35:06;4.90;;;3.43;;
6259;SDS011;3163;51.516;4.000;2022-08-11T06:37:43;4.80;;;3.80;;
6259;SDS011;3163;51.516;4.000;2022-08-11T06:43:01;8.53;;;3.63;;
6259;SDS011;3163;51.516;4.000;2022-08-11T06:47:58;3.83;;;3.00;;
6259;SDS011;3163;51.516;4.000;2022-08-11T06:50:25;5.72;;;3.53;;
6259;SDS011;3163;51.516;4.000;2022-08-11T06:53:10;4.20;;;2.80;;
6259;SDS011;3163;51.516;4.000;2022-08-11T06:55:41;5.53;;;2.65;;
6259;SDS011;3163;51.516;4.000;2022-08-11T06:58:27;5.03;;;2.60;;
6259;SDS011;3163;51.516;4.000;2022-08-11T07:01:15;4.30;;;2.78;;
6259;SDS011;3163;51.516;4.000;2022-08-11T07:03:42;3.22;;;2.40;;
6259;SDS011;3163;51.516;4.000;2022-08-11T07:06:21;5.47;;;1.80;;
6259;SDS011;3163;51.516;4.000;2022-08-11T07:09:06;3.58;;;1.77;;
6259;SDS011;3163;51.516;4.000;2022-08-11T07:14:22;1.70;;;1.58;;
6259;SDS011;3163;51.516;4.000;2022-08-11T07:17:10;2.75;;;1.83;;
6259;SDS011;3163;51.516;4.000;2022-08-11T07:19:39;4.85;;;2.10;;
6259;SDS011;3163;51.516;4.000;2022-08-11T07:22:24;5.27;;;2.13;;
6259;SDS011;3163;51.516;4.000;2022-08-11T07:25:13;4.38;;;1.70;;
6259;SDS011;3163;51.516;4.000;2022-08-11T07:30:46;2.83;;;1.92;;
6259;SDS011;3163;51.516;4.000;2022-08-11T07:33:13;1.67;;;1.60;;
6259;SDS011;3163;51.516;4.000;2022-08-11T07:35:48;2.92;;;1.92;;
6259;SDS011;3163;51.516;4.000;2022-08-11T07:38:19;1.70;;;1.58;;
6259;SDS011;3163;51.516;4.000;2022-08-11T07:40:46;1.88;;;1.52;;
6259;SDS011;3163;51.516;4.000;2022-08-11T07:43:12;2.45;;;2.10;;
6259;SDS011;3163;51.516;4.000;2022-08-11T07:45:42;2.92;;;2.10;;
6259;SDS011;3163;51.516;4.000;2022-08-11T07:48:27;3.17;;;1.90;;
6259;SDS011;3163;51.516;4.000;2022-08-11T07:51:16;2.05;;;1.83;;
6259;SDS011;3163;51.516;4.000;2022-08-11T07:54:02;1.63;;;1.52;;
6259;SDS011;3163;51.516;4.000;2022-08-11T07:56:31;3.17;;;1.77;;
6259;SDS011;3163;51.516;4.000;2022-08-11T07:58:58;1.88;;;1.55;;
6259;SDS011;3163;51.516;4.000;2022-08-11T08:01:42;1.83;;;1.70;;
6259;SDS011;3163;51.516;4.000;2022-08-11T08:04:27;3.53;;;2.40;;
6259;SDS011;3163;51.516;4.000;2022-08-11T08:07:12;1.73;;;1.58;;
6259;SDS011;3163;51.516;4.000;2022-08-11T08:09:57;1.48;;;1.38;;
6259;SDS011;3163;51.516;4.000;2022-08-11T08:12:41;2.20;;;2.00;;
6259;SDS011;3163;51.516;4.000;2022-08-11T08:15:27;1.70;;;1.60;;
6259;SDS011;3163;51.516;4.000;2022-08-11T08:18:12;1.67;;;1.58;;
6259;SDS011;3163;51.516;4.000;2022-08-11T08:20:40;1.83;;;1.70;;
6259;SDS011;3163;51.516;4.000;2022-08-11T08:23:07;2.92;;;2.40;;
6259;SDS011;3163;51.516;4.000;2022-08-11T08:25:34;3.13;;;1.75;;
6259;SDS011;3163;51.516;4.000;2022-08-11T08:28:02;2.25;;;1.98;;
6259;SDS011;3163;51.516;4.000;2022-08-11T08:30:29;2.20;;;1.38;;
6259;SDS011;3163;51.516;4.000;2022-08-11T08:33:32;1.67;;;1.58;;
6259;SDS011;3163;51.516;4.000;2022-08-11T08:35:59;1.38;;;1.27;;
6259;SDS011;3163;51.516;4.000;2022-08-11T08:38:40;1.70;;;1.60;;
6259;SDS011;3163;51.516;4.000;2022-08-11T08:41:07;1.50;;;1.20;;
6259;SDS011;3163;51.516;4.000;2022-08-11T08:43:34;1.58;;;1.48;;
6259;SDS011;3163;51.516;4.000;2022-08-11T08:46:00;5.85;;;1.80;;
6259;SDS011;3163;51.516;4.000;2022-08-11T08:48:27;1.70;;;1.60;;
6259;SDS011;3163;51.516;4.000;2022-08-11T08:50:57;2.08;;;1.98;;
6259;SDS011;3163;51.516;4.000;2022-08-11T08:53:51;6.63;;;2.90;;
6259;SDS011;3163;51.516;4.000;2022-08-11T08:56:18;5.38;;;2.58;;
6259;SDS011;3163;51.516;4.000;2022-08-11T08:58:45;2.00;;;1.90;;
6259;SDS011;3163;51.516;4.000;2022-08-11T09:01:12;3.00;;;2.03;;
6259;SDS011;3163;51.516;4.000;2022-08-11T09:03:39;2.22;;;1.73;;
6259;SDS011;3163;51.516;4.000;2022-08-11T09:06:06;2.55;;;1.95;;
6259;SDS011;3163;51.516;4.000;2022-08-11T09:08:33;2.75;;;2.13;;
6259;SDS011;3163;51.516;4.000;2022-08-11T09:11:00;3.28;;;1.80;;
6259;SDS011;3163;51.516;4.000;2022-08-11T09:13:45;1.85;;;1.52;;
6259;SDS011;3163;51.516;4.000;2022-08-11T09:16:12;2.55;;;2.08;;
6259;SDS011;3163;51.516;4.000;2022-08-11T09:18:38;1.95;;;1.65;;
6259;SDS011;3163;51.516;4.000;2022-08-11T09:21:08;1.95;;;1.85;;
6259;SDS011;3163;51.516;4.000;2022-08-11T09:23:35;2.90;;;1.90;;
6259;SDS011;3163;51.516;4.000;2022-08-11T09:26:20;2.90;;;1.75;;
6259;SDS011;3163;51.516;4.000;2022-08-11T09:29:05;2.50;;;2.03;;
6259;SDS011;3163;51.516;4.000;2022-08-11T09:31:32;1.67;;;1.55;;
6259;SDS011;3163;51.516;4.000;2022-08-11T09:33:59;1.98;;;1.70;;
6259;SDS011;3163;51.516;4.000;2022-08-11T09:36:25;2.83;;;1.50;;
6259;SDS011;3163;51.516;4.000;2022-08-11T09:39:10;1.92;;;1.73;;
6259;SDS011;3163;51.516;4.000;2022-08-11T09:41:56;2.70;;;1.65;;
6259;SDS011;3163;51.516;4.000;2022-08-11T09:44:22;1.60;;;1.50;;
6259;SDS011;3163;51.516;4.000;2022-08-11T09:47:07;2.05;;;1.88;;
6259;SDS011;3163;51.516;4.000;2022-08-11T09:49:38;1.60;;;1.50;;
6259;SDS011;3163;51.516;4.000;2022-08-11T09:52:05;1.83;;;1.60;;
6259;SDS011;3163;51.516;4.000;2022-08-11T09:54:33;1.85;;;1.75;;
6259;SDS011;3163;51.516;4.000;2022-08-11T09:56:59;1.42;;;1.42;;
6259;SDS011;3163;51.516;4.000;2022-08-11T09:59:44;1.60;;;1.38;;
6259;SDS011;3163;51.516;4.000;2022-08-11T10:02:10;2.20;;;1.60;;
6259;SDS011;3163;51.516;4.000;2022-08-11T10:04:40;1.40;;;1.30;;
6259;SDS011;3163;51.516;4.000;2022-08-11T10:07:06;2.05;;;1.73;;
6259;SDS011;3163;51.516;4.000;2022-08-11T10:12:26;2.83;;;1.50;;
6259;SDS011;3163;51.516;4.000;2022-08-11T10:14:55;1.58;;;1.48;;
6259;SDS011;3163;51.516;4.000;2022-08-11T10:17:41;1.85;;;1.70;;
6259;SDS011;3163;51.516;4.000;2022-08-11T10:20:29;1.92;;;1.80;;
6259;SDS011;3163;51.516;4.000;2022-08-11T10:22:57;1.75;;;1.63;;
6259;SDS011;3163;51.516;4.000;2022-08-11T10:25:42;3.10;;;1.52;;
6259;SDS011;3163;51.516;4.000;2022-08-11T10:28:27;2.03;;;1.35;;
6259;SDS011;3163;51.516;4.000;2022-08-11T10:30:53;2.55;;;1.35;;
6259;SDS011;3163;51.516;4.000;2022-08-11T10:33:39;1.55;;;1.45;;
6259;SDS011;3163;51.516;4.000;2022-08-11T10:36:24;5.25;;;1.77;;
6259;SDS011;3163;51.516;4.000;2022-08-11T10:38:51;1.50;;;1.40;;
6259;SDS011;3163;51.516;4.000;2022-08-11T10:41:18;2.90;;;1.65;;
6259;SDS011;3163;51.516;4.000;2022-08-11T10:44:04;2.55;;;1.80;;
6259;SDS011;3163;51.516;4.000;2022-08-11T10:46:31;1.77;;;1.42;;
6259;SDS011;3163;51.516;4.000;2022-08-11T10:49:15;1.80;;;1.70;;
6259;SDS011;3163;51.516;4.000;2022-08-11T10:51:43;1.50;;;1.40;;
6259;SDS011;3163;51.516;4.000;2022-08-11T10:54:28;2.05;;;1.50;;
6259;SDS011;3163;51.516;4.000;2022-08-11T10:57:13;3.50;;;1.65;;
6259;SDS011;3163;51.516;4.000;2022-08-11T10:59:58;2.10;;;1.75;;
6259;SDS011;3163;51.516;4.000;2022-08-11T11:02:24;2.13;;;1.42;;
6259;SDS011;3163;51.516;4.000;2022-08-11T11:07:21;1.63;;;1.52;;
6259;SDS011;3163;51.516;4.000;2022-08-11T11:09:58;2.83;;;1.92;;
6259;SDS011;3163;51.516;4.000;2022-08-11T11:12:29;1.85;;;1.23;;
6259;SDS011;3163;51.516;4.000;2022-08-11T11:15:15;1.70;;;1.60;;
6259;SDS011;3163;51.516;4.000;2022-08-11T11:18:05;1.58;;;1.38;;
6259;SDS011;3163;51.516;4.000;2022-08-11T11:20:40;1.52;;;1.17;;
6259;SDS011;3163;51.516;4.000;2022-08-11T11:23:08;1.60;;;1.50;;
6259;SDS011;3163;51.516;4.000;2022-08-11T11:25:51;1.65;;;1.63;;
6259;SDS011;3163;51.516;4.000;2022-08-11T11:39:14;1.58;;;1.48;;
6259;SDS011;3163;51.516;4.000;2022-08-11T11:41:41;2.35;;;1.90;;
6259;SDS011;3163;51.516;4.000;2022-08-11T11:44:07;3.85;;;1.65;;
6259;SDS011;3163;51.516;4.000;2022-08-11T11:46:36;5.20;;;1.73;;
6259;SDS011;3163;51.516;4.000;2022-08-11T11:49:02;1.60;;;1.50;;
6259;SDS011;3163;51.516;4.000;2022-08-11T11:51:33;1.40;;;1.30;;
6259;SDS011;3163;51.516;4.000;2022-08-11T11:53:59;1.70;;;1.60;;
6259;SDS011;3163;51.516;4.000;2022-08-11T11:56:27;2.30;;;1.40;;
6259;SDS011;3163;51.516;4.000;2022-08-11T11:58:54;1.58;;;1.50;;
6259;SDS011;3163;51.516;4.000;2022-08-11T12:01:40;1.90;;;1.80;;
6259;SDS011;3163;51.516;4.000;2022-08-11T12:04:07;3.75;;;1.73;;
6259;SDS011;3163;51.516;4.000;2022-08-11T12:06:34;1.98;;;1.58;;
6259;SDS011;3163;51.516;4.000;2022-08-11T12:09:01;1.88;;;1.77;;
6259;SDS011;3163;51.516;4.000;2022-08-11T12:11:28;1.80;;;1.70;;
6259;SDS011;3163;51.516;4.000;2022-08-11T12:14:15;1.40;;;1.30;;
6259;SDS011;3163;51.516;4.000;2022-08-11T12:16:42;2.33;;;1.50;;
6259;SDS011;3163;51.516;4.000;2022-08-11T12:19:13;4.10;;;1.70;;
6259;SDS011;3163;51.516;4.000;2022-08-11T12:21:40;1.90;;;1.80;;
6259;SDS011;3163;51.516;4.000;2022-08-11T12:24:28;1.98;;;1.88;;
6259;SDS011;3163;51.516;4.000;2022-08-11T12:27:14;1.58;;;1.48;;
6259;SDS011;3163;51.516;4.000;2022-08-11T12:29:49;3.92;;;1.55;;
6259;SDS011;3163;51.516;4.000;2022-08-11T12:32:16;1.33;;;1.33;;
6259;SDS011;3163;51.516;4.000;2022-08-11T12:34:42;1.80;;;1.70;;
6259;SDS011;3163;51.516;4.000;2022-08-11T12:37:08;2.78;;;1.60;;
6259;SDS011;3163;51.516;4.000;2022-08-11T12:39:37;1.40;;;1.40;;
6259;SDS011;3163;51.516;4.000;2022-08-11T12:42:23;1.88;;;1.77;;
6259;SDS011;3163;51.516;4.000;2022-08-11T12:45:09;1.60;;;1.50;;
6259;SDS011;3163;51.516;4.000;2022-08-11T12:47:51;3.53;;;1.48;;
6259;SDS011;3163;51.516;4.000;2022-08-11T12:50:36;2.65;;;1.52;;
6259;SDS011;3163;51.516;4.000;2022-08-11T12:53:22;1.52;;;1.42;;
6259;SDS011;3163;51.516;4.000;2022-08-11T12:55:49;1.83;;;1.60;;
6259;SDS011;3163;51.516;4.000;2022-08-11T12:58:35;1.67;;;1.58;;
6259;SDS011;3163;51.516;4.000;2022-08-11T13:01:04;1.33;;;1.33;;
6259;SDS011;3163;51.516;4.000;2022-08-11T13:03:49;1.45;;;1.42;;
6259;SDS011;3163;51.516;4.000;2022-08-11T13:06:34;1.70;;;1.60;;
6259;SDS011;3163;51.516;4.000;2022-08-11T13:09:01;1.50;;;1.50;;
6259;SDS011;3163;51.516;4.000;2022-08-11T13:11:28;2.10;;;1.90;;
6259;SDS011;3163;51.516;4.000;2022-08-11T13:14:14;3.42;;;2.00;;
6259;SDS011;3163;51.516;4.000;2022-08-11T13:16:40;1.88;;;1.70;;
6259;SDS011;3163;51.516;4.000;2022-08-11T13:19:26;2.03;;;1.80;;
6259;SDS011;3163;51.516;4.000;2022-08-11T13:21:53;2.17;;;1.70;;
6259;SDS011;3163;51.516;4.000;2022-08-11T13:24:19;6.35;;;1.40;;
6259;SDS011;3163;51.516;4.000;2022-08-11T13:26:46;1.30;;;1.30;;
6259;SDS011;3163;51.516;4.000;2022-08-11T13:29:15;3.13;;;1.60;;
6259;SDS011;3163;51.516;4.000;2022-08-11T13:31:41;1.60;;;1.50;;
6259;SDS011;3163;51.516;4.000;2022-08-11T13:34:07;1.40;;;1.40;;
6259;SDS011;3163;51.516;4.000;2022-08-11T13:36:33;2.28;;;1.92;;
6259;SDS011;3163;51.516;4.000;2022-08-11T13:39:00;3.70;;;1.67;;
6259;SDS011;3163;51.516;4.000;2022-08-11T13:41:27;1.55;;;1.45;;
6259;SDS011;3163;51.516;4.000;2022-08-11T13:44:08;1.60;;;1.50;;
6259;SDS011;3163;51.516;4.000;2022-08-11T13:46:35;2.03;;;1.73;;
6259;SDS011;3163;51.516;4.000;2022-08-11T13:49:02;1.75;;;1.65;;
6259;SDS011;3163;51.516;4.000;2022-08-11T13:51:28;2.30;;;1.50;;
6259;SDS011;3163;51.516;4.000;2022-08-11T13:53:56;1.75;;;1.42;;
6259;SDS011;3163;51.516;4.000;2022-08-11T13:56:22;3.78;;;1.88;;
6259;SDS011;3163;51.516;4.000;2022-08-11T13:58:49;2.45;;;1.75;;
6259;SDS011;3163;51.516;4.000;2022-08-11T14:01:15;2.05;;;1.60;;
6259;SDS011;3163;51.516;4.000;2022-08-11T14:03:42;1.92;;;1.80;;
6259;SDS011;3163;51.516;4.000;2022-08-11T14:06:09;1.52;;;1.42;;
6259;SDS011;3163;51.516;4.000;2022-08-11T14:08:37;3.63;;;1.50;;
6259;SDS011;3163;51.516;4.000;2022-08-11T14:11:03;4.30;;;1.77;;
6259;SDS011;3163;51.516;4.000;2022-08-11T14:13:50;1.70;;;1.60;;
6259;SDS011;3163;51.516;4.000;2022-08-11T14:16:27;2.35;;;1.65;;
6259;SDS011;3163;51.516;4.000;2022-08-11T14:18:56;1.95;;;1.80;;
6259;SDS011;3163;51.516;4.000;2022-08-11T14:21:22;2.13;;;1.92;;
6259;SDS011;3163;51.516;4.000;2022-08-11T14:24:08;2.40;;;1.95;;
6259;SDS011;3163;51.516;4.000;2022-08-11T14:26:35;1.67;;;1.58;;
6259;SDS011;3163;51.516;4.000;2022-08-11T14:31:36;4.97;;;2.30;;
6259;SDS011;3163;51.516;4.000;2022-08-11T14:34:03;2.42;;;2.00;;
6259;SDS011;3163;51.516;4.000;2022-08-11T14:36:30;1.90;;;1.80;;
6259;SDS011;3163;51.516;4.000;2022-08-11T14:38:59;2.25;;;2.05;;
6259;SDS011;3163;51.516;4.000;2022-08-11T14:41:26;1.98;;;1.80;;
6259;SDS011;3163;51.516;4.000;2022-08-11T14:44:10;2.65;;;1.42;;
6259;SDS011;3163;51.516;4.000;2022-08-11T14:46:55;1.55;;;1.30;;
6259;SDS011;3163;51.516;4.000;2022-08-11T14:49:36;4.00;;;2.28;;
6259;SDS011;3163;51.516;4.000;2022-08-11T14:52:05;4.15;;;1.85;;
6259;SDS011;3163;51.516;4.000;2022-08-11T14:54:32;1.90;;;1.80;;
6259;SDS011;3163;51.516;4.000;2022-08-11T14:57:19;3.30;;;2.28;;
6259;SDS011;3163;51.516;4.000;2022-08-11T14:59:45;2.17;;;1.88;;
6259;SDS011;3163;51.516;4.000;2022-08-11T15:02:13;3.22;;;1.90;;
6259;SDS011;3163;51.516;4.000;2022-08-11T15:05:05;1.80;;;1.70;;
6259;SDS011;3163;51.516;4.000;2022-08-11T15:07:32;4.60;;;2.20;;
6259;SDS011;3163;51.516;4.000;2022-08-11T15:09:58;3.22;;;2.03;;
6259;SDS011;3163;51.516;4.000;2022-08-11T15:12:25;3.65;;;2.00;;
6259;SDS011;3163;51.516;4.000;2022-08-11T15:14:51;3.75;;;1.88;;
6259;SDS011;3163;51.516;4.000;2022-08-11T15:17:37;2.95;;;1.60;;
6259;SDS011;3163;51.516;4.000;2022-08-11T15:20:05;1.85;;;1.73;;
6259;SDS011;3163;51.516;4.000;2022-08-11T15:22:50;1.70;;;1.60;;
6259;SDS011;3163;51.516;4.000;2022-08-11T15:25:35;3.90;;;1.88;;
6259;SDS011;3163;51.516;4.000;2022-08-11T15:28:02;2.10;;;1.90;;
6259;SDS011;3163;51.516;4.000;2022-08-11T15:30:50;1.80;;;1.70;;
6259;SDS011;3163;51.516;4.000;2022-08-11T15:33:37;2.92;;;1.70;;
6259;SDS011;3163;51.516;4.000;2022-08-11T15:36:22;3.03;;;1.95;;
6259;SDS011;3163;51.516;4.000;2022-08-11T15:39:08;2.22;;;2.03;;
6259;SDS011;3163;51.516;4.000;2022-08-11T15:41:43;2.15;;;1.90;;
6259;SDS011;3163;51.516;4.000;2022-08-11T15:44:29;1.70;;;1.60;;
6259;SDS011;3163;51.516;4.000;2022-08-11T15:47:24;1.80;;;1.70;;
6259;SDS011;3163;51.516;4.000;2022-08-11T15:49:52;2.30;;;2.10;;
6259;SDS011;3163;51.516;4.000;2022-08-11T15:52:22;1.55;;;1.48;;
6259;SDS011;3163;51.516;4.000;2022-08-11T15:54:51;1.35;;;1.33;;
6259;SDS011;3163;51.516;4.000;2022-08-11T15:57:17;1.60;;;1.50;;
6259;SDS011;3163;51.516;4.000;2022-08-11T16:00:04;1.95;;;1.75;;
6259;SDS011;3163;51.516;4.000;2022-08-11T16:02:51;2.03;;;1.90;;
6259;SDS011;3163;51.516;4.000;2022-08-11T16:05:20;6.38;;;1.60;;
6259;SDS011;3163;51.516;4.000;2022-08-11T16:07:47;5.15;;;2.05;;
6259;SDS011;3163;51.516;4.000;2022-08-11T16:10:15;1.75;;;1.25;;
6259;SDS011;3163;51.516;4.000;2022-08-11T16:12:49;1.60;;;1.45;;
6259;SDS011;3163;51.516;4.000;2022-08-11T16:15:25;1.27;;;1.20;;
6259;SDS011;3163;51.516;4.000;2022-08-11T16:18:10;0.88;;;0.88;;
6259;SDS011;3163;51.516;4.000;2022-08-11T16:20:36;1.73;;;1.60;;
6259;SDS011;3163;51.516;4.000;2022-08-11T16:23:03;1.70;;;1.60;;
6259;SDS011;3163;51.516;4.000;2022-08-11T16:25:32;3.45;;;1.50;;
6259;SDS011;3163;51.516;4.000;2022-08-11T16:27:59;4.40;;;1.80;;
6259;SDS011;3163;51.516;4.000;2022-08-11T16:30:29;2.15;;;2.00;;
6259;SDS011;3163;51.516;4.000;2022-08-11T16:32:56;2.30;;;2.00;;
6259;SDS011;3163;51.516;4.000;2022-08-11T16:35:23;1.88;;;1.77;;
6259;SDS011;3163;51.516;4.000;2022-08-11T16:38:08;2.03;;;1.88;;
6259;SDS011;3163;51.516;4.000;2022-08-11T16:40:54;2.63;;;2.10;;
6259;SDS011;3163;51.516;4.000;2022-08-11T16:43:22;2.40;;;2.08;;
6259;SDS011;3163;51.516;4.000;2022-08-11T16:46:07;2.28;;;1.98;;
6259;SDS011;3163;51.516;4.000;2022-08-11T16:48:53;2.33;;;2.13;;
6259;SDS011;3163;51.516;4.000;2022-08-11T16:51:20;1.83;;;1.73;;
6259;SDS011;3163;51.516;4.000;2022-08-11T16:53:46;4.13;;;1.80;;
6259;SDS011;3163;51.516;4.000;2022-08-11T16:59:15;1.60;;;1.50;;
6259;SDS011;3163;51.516;4.000;2022-08-11T17:01:51;1.95;;;1.80;;
6259;SDS011;3163;51.516;4.000;2022-08-11T17:04:19;3.83;;;1.95;;
6259;SDS011;3163;51.516;4.000;2022-08-11T17:07:06;1.85;;;1.60;;
6259;SDS011;3163;51.516;4.000;2022-08-11T17:09:51;2.72;;;2.13;;
6259;SDS011;3163;51.516;4.000;2022-08-11T17:12:37;1.90;;;1.80;;
6259;SDS011;3163;51.516;4.000;2022-08-11T17:15:22;2.53;;;2.17;;
6259;SDS011;3163;51.516;4.000;2022-08-11T17:18:07;2.55;;;1.73;;
6259;SDS011;3163;51.516;4.000;2022-08-11T17:20:35;1.88;;;1.65;;
6259;SDS011;3163;51.516;4.000;2022-08-11T17:23:02;1.73;;;1.63;;
6259;SDS011;3163;51.516;4.000;2022-08-11T17:25:48;2.75;;;2.53;;
6259;SDS011;3163;51.516;4.000;2022-08-11T17:28:15;4.15;;;1.92;;
6259;SDS011;3163;51.516;4.000;2022-08-11T17:30:43;1.75;;;1.65;;
6259;SDS011;3163;51.516;4.000;2022-08-11T17:33:28;3.22;;;1.98;;
6259;SDS011;3163;51.516;4.000;2022-08-11T17:36:14;3.00;;;2.03;;
6259;SDS011;3163;51.516;4.000;2022-08-11T17:38:42;2.35;;;2.13;;
6259;SDS011;3163;51.516;4.000;2022-08-11T17:41:09;4.60;;;2.25;;
6259;SDS011;3163;51.516;4.000;2022-08-11T17:43:55;2.63;;;2.08;;
6259;SDS011;3163;51.516;4.000;2022-08-11T17:46:41;2.70;;;2.10;;
6259;SDS011;3163;51.516;4.000;2022-08-11T17:49:26;3.65;;;2.10;;
6259;SDS011;3163;51.516;4.000;2022-08-11T17:51:59;3.15;;;2.20;;
6259;SDS011;3163;51.516;4.000;2022-08-11T17:54:44;2.90;;;1.77;;
6259;SDS011;3163;51.516;4.000;2022-08-11T17:57:29;1.70;;;1.60;;
6259;SDS011;3163;51.516;4.000;2022-08-11T18:00:14;2.35;;;1.95;;
6259;SDS011;3163;51.516;4.000;2022-08-11T18:02:41;2.80;;;1.85;;
6259;SDS011;3163;51.516;4.000;2022-08-11T18:05:28;4.03;;;1.95;;
6259;SDS011;3163;51.516;4.000;2022-08-11T18:07:56;2.22;;;2.00;;
6259;SDS011;3163;51.516;4.000;2022-08-11T18:10:41;1.80;;;1.70;;
6259;SDS011;3163;51.516;4.000;2022-08-11T18:13:28;3.20;;;2.00;;
6259;SDS011;3163;51.516;4.000;2022-08-11T18:16:13;4.63;;;1.88;;
6259;SDS011;3163;51.516;4.000;2022-08-11T18:18:58;1.70;;;1.60;;
6259;SDS011;3163;51.516;4.000;2022-08-11T18:21:43;2.10;;;1.83;;
6259;SDS011;3163;51.516;4.000;2022-08-11T18:24:29;2.35;;;1.52;;
6259;SDS011;3163;51.516;4.000;2022-08-11T18:27:14;2.53;;;1.55;;
6259;SDS011;3163;51.516;4.000;2022-08-11T18:30:00;1.55;;;1.42;;
6259;SDS011;3163;51.516;4.000;2022-08-11T18:32:47;1.90;;;1.70;;
6259;SDS011;3163;51.516;4.000;2022-08-11T18:35:32;2.42;;;2.20;;
6259;SDS011;3163;51.516;4.000;2022-08-11T18:38:18;4.90;;;1.90;;
6259;SDS011;3163;51.516;4.000;2022-08-11T18:41:06;1.73;;;1.58;;
6259;SDS011;3163;51.516;4.000;2022-08-11T18:43:51;3.05;;;2.10;;
6259;SDS011;3163;51.516;4.000;2022-08-11T18:46:38;3.63;;;2.75;;
6259;SDS011;3163;51.516;4.000;2022-08-11T18:49:26;2.38;;;2.17;;
6259;SDS011;3163;51.516;4.000;2022-08-11T18:52:12;2.75;;;2.15;;
6259;SDS011;3163;51.516;4.000;2022-08-11T18:54:59;2.55;;;1.83;;
6259;SDS011;3163;51.516;4.000;2022-08-11T18:57:46;5.38;;;1.75;;
6259;SDS011;3163;51.516;4.000;2022-08-11T19:00:31;3.67;;;2.30;;
6259;SDS011;3163;51.516;4.000;2022-08-11T19:03:16;1.55;;;1.45;;
6259;SDS011;3163;51.516;4.000;2022-08-11T19:06:03;3.22;;;2.20;;
6259;SDS011;3163;51.516;4.000;2022-08-11T19:08:52;3.92;;;2.40;;
6259;SDS011;3163;51.516;4.000;2022-08-11T19:11:38;2.55;;;2.10;;
6259;SDS011;3163;51.516;4.000;2022-08-11T19:14:23;1.60;;;1.50;;